Time;durP1;ratioP1;P1;durP2;ratioP2;P2;SDS_P1;SDS_P2;PMS_P1;PMS_P2;Temp;Humidity;BMP_temperature;BMP_pressure;BME280_temperature;BME280_humidity;BME280_pressure;Samples;Min_cycle;Max_cycle;Signal;HPM_P1;HPM_P2
2024/01/03 00:00:06;;;;;;;2.58;1.00;;;17.90;72.70;;;;;;5059368;28;45237;-53
2024/01/03 00:02:33;;;;;;;5.40;1.05;;;17.90;72.90;;;;;;5059148;28;45268;-53
2024/01/03 00:04:59;;;;;;;3.17;1.00;;;17.90;72.60;;;;;;5059293;28;45209;-52
2024/01/03 00:07:26;;;;;;;2.10;0.82;;;17.90;72.10;;;;;;5058642;28;45205;-53
2024/01/03 00:09:58;;;;;;;4.82;0.80;;;17.90;72.20;;;;;;5055036;28;45232;-53
2024/01/03 00:12:25;;;;;;;2.38;0.88;;;17.90;71.90;;;;;;5058649;28;45309;-53
2024/01/03 00:14:52;;;;;;;5.22;1.20;;;17.90;72.10;;;;;;5057766;28;45237;-53
2024/01/03 00:17:22;;;;;;;3.25;1.13;;;17.90;72.00;;;;;;5059268;28;44599;-53
2024/01/03 00:19:54;;;;;;;2.42;0.80;;;17.90;72.20;;;;;;5059379;28;45488;-53
2024/01/03 00:22:21;;;;;;;2.83;0.90;;;17.90;72.10;;;;;;5057773;28;45365;-53
2024/01/03 00:24:48;;;;;;;2.13;0.75;;;17.90;72.10;;;;;;5057657;28;45107;-52
2024/01/03 00:27:16;;;;;;;2.45;0.88;;;17.90;72.10;;;;;;5056649;28;45241;-53
2024/01/03 00:29:51;;;;;;;3.95;1.10;;;17.80;71.90;;;;;;5057760;28;45231;-53
2024/01/03 00:32:19;;;;;;;5.15;1.20;;;17.80;71.90;;;;;;5057090;28;45249;-53
2024/01/03 00:34:47;;;;;;;4.18;0.90;;;17.90;72.20;;;;;;5056981;28;45095;-53
2024/01/03 00:37:28;;;;;;;2.97;1.27;;;17.90;72.10;;;;;;5059567;28;45173;-52
2024/01/03 00:39:56;;;;;;;2.78;0.60;;;17.80;71.70;;;;;;5057758;28;45141;-53
2024/01/03 00:42:23;;;;;;;4.90;1.00;;;17.80;71.90;;;;;;5056774;28;45382;-52
2024/01/03 00:44:50;;;;;;;2.33;0.60;;;17.80;71.80;;;;;;5056955;28;46088;-52
2024/01/03 00:47:18;;;;;;;2.47;0.73;;;17.90;72.20;;;;;;5058653;28;45304;-52
2024/01/03 00:49:47;;;;;;;1.77;0.90;;;17.90;72.20;;;;;;5058960;28;44779;-52
2024/01/03 00:52:14;;;;;;;3.22;0.95;;;17.90;72.20;;;;;;5057106;28;48749;-52
2024/01/03 00:54:41;;;;;;;2.28;0.75;;;17.90;72.30;;;;;;5057156;28;45287;-52
2024/01/03 00:57:08;;;;;;;2.85;1.00;;;17.90;72.50;;;;;;5058527;28;45287;-52
2024/01/03 00:59:37;;;;;;;3.10;1.02;;;17.90;72.60;;;;;;5056806;28;45339;-53
2024/01/03 01:02:04;;;;;;;3.40;0.93;;;17.90;72.50;;;;;;5058355;28;45466;-52
2024/01/03 01:04:32;;;;;;;2.55;1.23;;;17.90;72.60;;;;;;5057703;28;45205;-52
2024/01/03 01:07:00;;;;;;;3.20;1.02;;;17.90;72.40;;;;;;5058181;28;45242;-52
2024/01/03 01:09:27;;;;;;;3.05;0.70;;;17.90;72.60;;;;;;5056741;28;45340;-52
2024/01/03 01:11:54;;;;;;;1.85;0.80;;;17.90;72.60;;;;;;5057909;28;45126;-52
2024/01/03 01:14:21;;;;;;;3.05;1.00;;;18.00;72.50;;;;;;5058109;28;45206;-53
2024/01/03 01:16:48;;;;;;;2.50;0.70;;;17.90;72.40;;;;;;5058809;28;45253;-52
2024/01/03 01:19:14;;;;;;;4.00;0.88;;;17.90;72.50;;;;;;5058824;28;45154;-53
2024/01/03 01:21:42;;;;;;;2.63;0.93;;;18.00;72.50;;;;;;5055271;28;46190;-53
2024/01/03 01:24:10;;;;;;;1.45;0.73;;;18.00;72.60;;;;;;5057437;28;45463;-53
2024/01/03 01:26:37;;;;;;;3.22;1.05;;;18.00;72.40;;;;;;5056241;28;45287;-53
2024/01/03 01:29:04;;;;;;;1.42;0.55;;;17.90;72.50;;;;;;5058520;28;45250;-53
2024/01/03 01:31:31;;;;;;;1.77;0.80;;;18.00;72.40;;;;;;5056609;28;46750;-53
2024/01/03 01:33:58;;;;;;;2.45;0.77;;;18.00;72.50;;;;;;5057665;28;45601;-53
2024/01/03 01:36:23;;;;;;;1.42;0.60;;;18.00;72.20;;;;;;5057745;28;44627;-53
2024/01/03 01:38:50;;;;;;;0.38;0.30;;;18.00;71.70;;;;;;5056797;28;45662;-52
2024/01/03 01:41:19;;;;;;;1.83;0.68;;;17.90;71.30;;;;;;5057674;28;45282;-52
2024/01/03 01:43:45;;;;;;;4.47;1.13;;;17.90;71.20;;;;;;5056846;28;45196;-52
2024/01/03 01:46:13;;;;;;;2.17;0.80;;;17.90;71.00;;;;;;5058687;28;45328;-52
2024/01/03 01:48:41;;;;;;;3.15;0.80;;;17.90;71.20;;;;;;5058645;28;44701;-52
2024/01/03 01:51:10;;;;;;;3.20;1.10;;;17.90;71.00;;;;;;5054988;28;45466;-52
2024/01/03 01:53:37;;;;;;;2.22;0.70;;;17.90;70.80;;;;;;5058702;28;45245;-52
2024/01/03 01:56:05;;;;;;;3.42;0.98;;;17.90;71.10;;;;;;5057650;28;45252;-52
2024/01/03 01:58:33;;;;;;;3.13;0.70;;;17.90;71.50;;;;;;5056140;28;45166;-52
2024/01/03 02:01:00;;;;;;;3.35;0.85;;;17.90;71.60;;;;;;5056190;28;45323;-52
2024/01/03 02:03:27;;;;;;;2.22;0.73;;;17.90;71.70;;;;;;5057894;28;45213;-52
2024/01/03 02:05:54;;;;;;;2.95;0.90;;;17.90;71.90;;;;;;5056372;28;45162;-52
2024/01/03 02:08:21;;;;;;;2.50;0.70;;;17.90;71.90;;;;;;5056724;28;45122;-52
2024/01/03 02:10:48;;;;;;;1.48;0.70;;;17.90;71.70;;;;;;5057791;28;46536;-53
2024/01/03 02:13:14;;;;;;;2.30;0.60;;;17.90;71.50;;;;;;5056308;28;45268;-53
2024/01/03 02:15:43;;;;;;;1.70;0.70;;;17.90;71.10;;;;;;5056727;28;45146;-52
2024/01/03 02:18:10;;;;;;;2.55;0.80;;;17.90;71.00;;;;;;5058354;28;45268;-52
2024/01/03 02:20:38;;;;;;;1.65;0.75;;;17.90;71.00;;;;;;5057724;28;46537;-52
2024/01/03 02:23:06;;;;;;;1.77;0.43;;;17.90;71.00;;;;;;5056573;28;45369;-52
2024/01/03 02:25:33;;;;;;;3.28;0.70;;;17.90;70.90;;;;;;5056560;28;45146;-53
2024/01/03 02:28:00;;;;;;;2.60;0.82;;;17.90;71.10;;;;;;5056375;28;45205;-52
2024/01/03 02:30:26;;;;;;;2.30;0.70;;;17.90;71.00;;;;;;5055669;28;47334;-52
2024/01/03 02:32:53;;;;;;;1.95;0.68;;;17.90;71.00;;;;;;5055695;28;45337;-52
2024/01/03 02:35:20;;;;;;;2.30;0.50;;;17.90;72.10;;;;;;5056718;28;45134;-52
2024/01/03 02:37:47;;;;;;;1.95;0.55;;;17.90;70.90;;;;;;5057638;28;45357;-52
2024/01/03 02:40:15;;;;;;;2.42;0.52;;;17.90;71.20;;;;;;5055806;28;47922;-52
2024/01/03 02:42:42;;;;;;;1.50;0.60;;;17.90;71.40;;;;;;5056597;28;45226;-53
2024/01/03 02:45:09;;;;;;;2.95;0.70;;;17.90;71.20;;;;;;5056331;28;45235;-52
2024/01/03 02:47:36;;;;;;;2.13;0.60;;;17.90;71.20;;;;;;5057036;28;45157;-52
2024/01/03 02:50:03;;;;;;;1.40;0.57;;;17.90;71.00;;;;;;5056858;28;46579;-52
2024/01/03 02:52:31;;;;;;;1.25;0.50;;;17.90;71.10;;;;;;5054942;28;45193;-52
2024/01/03 02:54:58;;;;;;;1.38;0.70;;;17.90;71.00;;;;;;5058112;28;45152;-52
2024/01/03 02:57:26;;;;;;;1.35;0.60;;;17.90;71.00;;;;;;5059639;28;45537;-52
2024/01/03 02:59:53;;;;;;;3.15;0.85;;;17.90;70.50;;;;;;5059134;28;45224;-52
2024/01/03 03:02:20;;;;;;;0.98;0.40;;;17.90;70.50;;;;;;5059314;28;45290;-52
2024/01/03 03:04:47;;;;;;;1.45;0.60;;;17.90;70.10;;;;;;5059304;28;44664;-52
2024/01/03 03:07:13;;;;;;;0.80;0.60;;;17.90;70.30;;;;;;5059578;28;45439;-52
2024/01/03 03:09:40;;;;;;;1.83;0.60;;;17.90;70.70;;;;;;5057371;28;47414;-52
2024/01/03 03:12:07;;;;;;;1.60;0.50;;;17.90;70.50;;;;;;5060495;28;45654;-52
2024/01/03 03:14:35;;;;;;;1.83;0.60;;;17.90;70.20;;;;;;5058061;28;45494;-52
2024/01/03 03:17:02;;;;;;;1.10;0.43;;;17.90;70.60;;;;;;5060850;28;45307;-52
2024/01/03 03:19:29;;;;;;;3.22;0.52;;;17.90;70.40;;;;;;5060487;28;47557;-52
2024/01/03 03:21:56;;;;;;;2.17;0.60;;;17.90;70.30;;;;;;5057941;28;45756;-53
2024/01/03 03:24:22;;;;;;;1.35;0.60;;;17.90;70.60;;;;;;5055696;28;45249;-52
2024/01/03 03:26:49;;;;;;;2.00;0.75;;;17.90;70.60;;;;;;5057325;28;45180;-52
2024/01/03 03:29:17;;;;;;;1.27;0.32;;;17.90;70.70;;;;;;5055885;28;48418;-52
2024/01/03 03:31:45;;;;;;;1.23;0.63;;;17.90;70.80;;;;;;5059946;28;45276;-52
2024/01/03 03:34:12;;;;;;;1.90;0.47;;;17.90;70.70;;;;;;5059139;28;44682;-52
2024/01/03 03:36:38;;;;;;;1.63;0.60;;;17.90;70.60;;;;;;5058658;28;45123;-52
2024/01/03 03:39:07;;;;;;;2.80;0.60;;;17.90;70.50;;;;;;5058350;28;46505;-52
2024/01/03 03:41:34;;;;;;;1.33;0.45;;;17.90;70.80;;;;;;5059569;28;45256;-52
2024/01/03 03:44:01;;;;;;;1.35;0.60;;;17.90;70.70;;;;;;5059478;28;44627;-52
2024/01/03 03:46:28;;;;;;;2.30;0.70;;;17.90;70.70;;;;;;5059499;28;45430;-52
2024/01/03 03:48:56;;;;;;;2.40;0.60;;;17.90;70.50;;;;;;5060743;28;47002;-52
2024/01/03 03:51:23;;;;;;;1.90;0.68;;;17.90;70.70;;;;;;5057571;28;45182;-52
2024/01/03 03:53:48;;;;;;;3.95;0.73;;;17.90;70.60;;;;;;5057774;28;45197;-52
2024/01/03 03:56:22;;;;;;;1.33;0.47;;;17.90;70.40;;;;;;5059304;28;45324;-52
2024/01/03 03:58:49;;;;;;;1.65;0.60;;;17.90;70.10;;;;;;5060282;28;45259;-52
2024/01/03 04:01:15;;;;;;;3.00;0.63;;;17.90;70.00;;;;;;5057961;28;45151;-52
2024/01/03 04:03:42;;;;;;;3.90;0.57;;;17.90;70.20;;;;;;5059971;28;45141;-52
2024/01/03 04:06:12;;;;;;;2.67;0.60;;;17.90;70.40;;;;;;5058506;28;45202;-52
2024/01/03 04:08:41;;;;;;;1.13;0.50;;;17.90;70.20;;;;;;5059666;28;46550;-52
2024/01/03 04:11:08;;;;;;;1.55;0.63;;;17.90;70.30;;;;;;5056900;28;45160;-52
2024/01/03 04:13:36;;;;;;;2.80;0.60;;;17.90;70.50;;;;;;5059481;28;46063;-52
2024/01/03 04:16:05;;;;;;;2.25;0.65;;;17.90;70.20;;;;;;5057749;28;45222;-52
2024/01/03 04:18:33;;;;;;;3.55;0.60;;;17.90;70.30;;;;;;5057962;28;46245;-53
2024/01/03 04:20:59;;;;;;;1.58;0.70;;;17.90;70.20;;;;;;5058676;28;45162;-52
2024/01/03 04:23:28;;;;;;;2.53;0.65;;;17.90;70.20;;;;;;5057388;28;44605;-52
2024/01/03 04:25:54;;;;;;;3.40;0.70;;;17.90;70.50;;;;;;5058302;28;45187;-52
2024/01/03 04:28:21;;;;;;;2.25;0.55;;;17.90;70.10;;;;;;5056962;28;45269;-52
2024/01/03 04:30:48;;;;;;;1.90;0.60;;;17.90;70.30;;;;;;5058444;28;45103;-52
2024/01/03 04:33:15;;;;;;;3.38;1.00;;;17.90;70.40;;;;;;5057235;28;45410;-52
2024/01/03 04:35:42;;;;;;;2.03;0.70;;;17.90;70.40;;;;;;5058716;28;45266;-52
2024/01/03 04:38:08;;;;;;;2.78;0.98;;;17.90;70.30;;;;;;5058009;28;45356;-52
2024/01/03 04:40:37;;;;;;;2.58;0.77;;;17.90;70.20;;;;;;5056485;28;45274;-53
2024/01/03 04:43:04;;;;;;;2.17;0.70;;;17.90;70.30;;;;;;5058356;28;45348;-52
2024/01/03 04:45:31;;;;;;;4.35;0.75;;;17.90;70.00;;;;;;5057810;28;44923;-52
2024/01/03 04:47:57;;;;;;;1.65;0.57;;;17.90;70.30;;;;;;5057804;28;47240;-53
2024/01/03 04:50:24;;;;;;;1.98;0.57;;;17.90;70.10;;;;;;5057660;28;45324;-53
2024/01/03 04:52:51;;;;;;;1.63;0.57;;;17.90;70.10;;;;;;5059190;28;45269;-52
2024/01/03 04:55:18;;;;;;;2.08;0.63;;;17.90;70.50;;;;;;5059767;28;45177;-52
2024/01/03 04:57:46;;;;;;;1.40;0.50;;;17.90;70.70;;;;;;5055998;28;45234;-53
2024/01/03 05:00:14;;;;;;;2.75;0.55;;;17.90;70.60;;;;;;5057583;28;45210;-52
2024/01/03 05:02:41;;;;;;;1.88;0.73;;;17.90;70.90;;;;;;5055862;28;45166;-53
2024/01/03 05:05:07;;;;;;;2.38;0.60;;;17.80;70.90;;;;;;5058060;28;45152;-52
2024/01/03 05:07:34;;;;;;;2.95;0.55;;;17.80;71.10;;;;;;5058685;28;45210;-52
2024/01/03 05:10:01;;;;;;;3.35;0.80;;;17.80;71.20;;;;;;5057036;28;45155;-52
2024/01/03 05:12:28;;;;;;;3.03;0.73;;;17.80;71.20;;;;;;5055615;28;45162;-52
2024/01/03 05:14:56;;;;;;;3.20;0.90;;;17.80;71.50;;;;;;5057055;28;45257;-52
2024/01/03 05:17:23;;;;;;;2.13;0.98;;;17.80;71.70;;;;;;5057933;28;44930;-52
2024/01/03 05:19:50;;;;;;;1.80;0.60;;;17.70;71.50;;;;;;5057760;28;45174;-52
2024/01/03 05:22:17;;;;;;;1.33;0.57;;;17.70;71.70;;;;;;5058629;28;45292;-52
2024/01/03 05:24:43;;;;;;;3.28;0.80;;;17.70;71.50;;;;;;5059428;28;45141;-53
2024/01/03 05:27:10;;;;;;;2.25;0.80;;;17.70;71.50;;;;;;5055285;28;47583;-52
2024/01/03 05:29:37;;;;;;;3.80;0.70;;;17.70;71.40;;;;;;5057144;28;45160;-52
2024/01/03 05:32:06;;;;;;;3.83;0.90;;;17.70;71.40;;;;;;5057888;28;45233;-52
2024/01/03 05:34:33;;;;;;;2.38;0.75;;;17.70;71.40;;;;;;5058713;28;45141;-52
2024/01/03 05:37:00;;;;;;;4.47;0.90;;;17.70;71.40;;;;;;5057441;28;45439;-52
2024/01/03 05:39:26;;;;;;;3.47;0.80;;;17.70;71.10;;;;;;5058464;28;45267;-52
2024/01/03 05:41:53;;;;;;;2.35;0.70;;;17.70;71.00;;;;;;5054174;28;44575;-52
2024/01/03 05:44:20;;;;;;;3.83;0.88;;;17.70;71.10;;;;;;5058216;28;45162;-53
2024/01/03 05:46:47;;;;;;;1.65;0.75;;;17.70;71.10;;;;;;5057919;28;45339;-52
2024/01/03 05:49:15;;;;;;;2.15;0.73;;;17.70;71.00;;;;;;5056163;28;45197;-52
2024/01/03 05:51:42;;;;;;;1.92;0.80;;;17.60;70.90;;;;;;5056163;28;45221;-52
2024/01/03 05:54:09;;;;;;;4.10;1.08;;;17.60;70.90;;;;;;5052337;28;45692;-52
2024/01/03 05:56:37;;;;;;;3.15;0.77;;;17.60;71.00;;;;;;5054827;28;47319;-52
2024/01/03 05:59:03;;;;;;;2.20;0.80;;;17.60;71.00;;;;;;5051835;28;45378;-52
2024/01/03 06:01:30;;;;;;;3.90;0.90;;;17.60;71.00;;;;;;5054572;28;45198;-53
2024/01/03 06:03:57;;;;;;;1.42;0.73;;;17.60;71.10;;;;;;5056793;28;45236;-52
2024/01/03 06:06:25;;;;;;;3.97;1.08;;;17.60;71.20;;;;;;5055720;28;47010;-52
2024/01/03 06:08:52;;;;;;;3.75;0.90;;;17.60;71.20;;;;;;5056739;28;45664;-53
2024/01/03 06:11:18;;;;;;;4.88;1.10;;;17.60;71.30;;;;;;5055802;28;45211;-52
2024/01/03 06:13:45;;;;;;;2.75;1.05;;;17.70;71.40;;;;;;5057008;28;45235;-52
2024/01/03 06:16:12;;;;;;;1.95;0.82;;;17.70;71.60;;;;;;5052996;28;45432;-52
2024/01/03 06:18:39;;;;;;;2.90;0.70;;;17.70;71.70;;;;;;5056731;28;45275;-52
2024/01/03 06:21:11;;;;;;;1.55;0.63;;;17.70;71.90;;;;;;5053897;28;45171;-52
2024/01/03 06:23:41;;;;;;;2.08;0.98;;;17.70;71.90;;;;;;5052805;28;45344;-52
2024/01/03 06:26:08;;;;;;;2.38;0.90;;;17.70;72.10;;;;;;5055672;28;45369;-52
2024/01/03 06:28:34;;;;;;;4.75;1.17;;;17.80;72.20;;;;;;5054408;28;45171;-53
2024/01/03 06:31:02;;;;;;;3.90;0.77;;;17.80;72.40;;;;;;5057377;28;45263;-52
2024/01/03 06:33:29;;;;;;;3.42;0.70;;;17.80;72.40;;;;;;5061602;28;44709;-52
2024/01/03 06:35:58;;;;;;;5.00;0.98;;;17.70;72.30;;;;;;5060313;28;46023;-53
2024/01/03 06:38:25;;;;;;;4.13;1.20;;;17.80;72.60;;;;;;5059899;28;45304;-52
2024/01/03 06:40:53;;;;;;;2.75;0.80;;;17.80;72.70;;;;;;5060939;28;45329;-52
2024/01/03 06:43:20;;;;;;;6.13;1.20;;;17.70;72.70;;;;;;5059804;28;45326;-53
2024/01/03 06:45:47;;;;;;;2.50;0.65;;;17.70;72.80;;;;;;5057229;28;45275;-52
2024/01/03 06:48:14;;;;;;;3.72;1.05;;;17.70;72.90;;;;;;5060303;28;45252;-52
2024/01/03 06:50:39;;;;;;;3.75;1.02;;;17.70;73.00;;;;;;5057749;28;45216;-52
2024/01/03 06:53:06;;;;;;;3.63;0.80;;;17.70;73.20;;;;;;5057935;28;45366;-52
2024/01/03 06:55:33;;;;;;;1.58;0.57;;;17.70;73.10;;;;;;5060741;28;46523;-52
2024/01/03 06:58:01;;;;;;;3.63;0.85;;;17.70;73.20;;;;;;5061575;28;45175;-53
2024/01/03 07:00:28;;;;;;;5.40;1.20;;;17.80;73.10;;;;;;5058752;28;45425;-53
2024/01/03 07:02:54;;;;;;;4.68;1.13;;;17.80;73.00;;;;;;5058513;28;45412;-52
2024/01/03 07:05:21;;;;;;;3.17;1.40;;;17.80;73.00;;;;;;5060858;28;45423;-53
2024/01/03 07:07:48;;;;;;;4.03;0.77;;;17.80;72.90;;;;;;5058167;28;45388;-53
2024/01/03 07:10:15;;;;;;;4.70;0.90;;;17.90;73.00;;;;;;5060325;28;45288;-53
2024/01/03 07:12:41;;;;;;;2.95;0.95;;;17.90;72.90;;;;;;5060690;28;45251;-53
2024/01/03 07:15:17;;;;;;;4.95;1.20;;;17.90;73.00;;;;;;5058024;28;45312;-53
2024/01/03 07:17:44;;;;;;;2.90;0.77;;;17.90;72.90;;;;;;5060581;28;45138;-52
2024/01/03 07:20:11;;;;;;;5.97;0.95;;;17.90;72.80;;;;;;5059868;28;45190;-53
2024/01/03 07:22:38;;;;;;;4.03;0.80;;;17.90;72.80;;;;;;5059932;28;45486;-52
2024/01/03 07:25:05;;;;;;;2.60;0.80;;;17.90;72.80;;;;;;5058696;28;46534;-52
2024/01/03 07:27:32;;;;;;;4.68;1.10;;;17.90;72.80;;;;;;5060075;28;45280;-52
2024/01/03 07:29:59;;;;;;;3.03;1.10;;;17.90;72.80;;;;;;5060275;28;45270;-52
2024/01/03 07:32:27;;;;;;;2.50;0.80;;;17.90;72.90;;;;;;5060009;28;45367;-52
2024/01/03 07:34:54;;;;;;;1.55;0.55;;;17.80;72.70;;;;;;5060602;28;46011;-52
2024/01/03 07:37:21;;;;;;;3.05;1.00;;;17.80;72.80;;;;;;5057336;28;45118;-52
2024/01/03 07:39:47;;;;;;;2.33;1.00;;;17.80;72.80;;;;;;5060797;28;45126;-52
2024/01/03 07:42:14;;;;;;;1.65;0.65;;;17.80;72.80;;;;;;5059216;28;45315;-53
2024/01/03 07:44:42;;;;;;;3.25;1.00;;;17.80;72.80;;;;;;5055205;28;47465;-53
2024/01/03 07:47:08;;;;;;;2.78;0.73;;;17.80;72.80;;;;;;5060405;28;45157;-52
2024/01/03 07:49:37;;;;;;;3.78;1.08;;;17.80;72.80;;;;;;5057877;28;45201;-52
2024/01/03 07:52:04;;;;;;;4.03;0.90;;;17.80;72.70;;;;;;5056357;28;45245;-53
2024/01/03 07:54:31;;;;;;;3.53;0.80;;;17.90;72.80;;;;;;5056073;28;48396;-53
2024/01/03 07:56:58;;;;;;;2.35;0.90;;;17.90;72.90;;;;;;5059068;28;45273;-53
2024/01/03 07:59:24;;;;;;;3.15;0.85;;;17.90;72.90;;;;;;5055500;28;45397;-52
2024/01/03 08:01:51;;;;;;;2.22;0.70;;;17.80;72.80;;;;;;5058041;28;45397;-53
2024/01/03 08:04:18;;;;;;;3.05;1.15;;;17.80;72.90;;;;;;5056669;28;47765;-53
2024/01/03 08:06:46;;;;;;;3.10;1.00;;;17.80;73.00;;;;;;5058753;28;45298;-53
2024/01/03 08:09:13;;;;;;;2.88;0.88;;;17.90;72.90;;;;;;5058117;28;45360;-53
2024/01/03 08:11:40;;;;;;;2.35;0.80;;;17.90;73.00;;;;;;5059077;28;45126;-52
2024/01/03 08:14:06;;;;;;;3.35;0.63;;;17.90;72.90;;;;;;5056157;28;45424;-53
2024/01/03 08:16:33;;;;;;;3.60;1.10;;;17.90;72.90;;;;;;5058120;28;45672;-52
2024/01/03 08:19:00;;;;;;;3.75;0.98;;;17.80;72.80;;;;;;5059491;28;44647;-52
2024/01/03 08:21:27;;;;;;;4.25;0.90;;;17.80;72.90;;;;;;5058932;28;45288;-52
2024/01/03 08:23:56;;;;;;;1.55;0.50;;;17.80;73.00;;;;;;5058791;28;46543;-53
2024/01/03 08:26:23;;;;;;;3.35;0.90;;;17.80;73.00;;;;;;5059396;28;45890;-53
2024/01/03 08:28:50;;;;;;;3.40;1.02;;;17.80;73.10;;;;;;5060005;28;45186;-52
2024/01/03 08:31:18;;;;;;;2.92;0.70;;;17.80;73.10;;;;;;5059076;28;45362;-53
2024/01/03 08:33:46;;;;;;;4.40;0.93;;;17.80;73.10;;;;;;5060328;28;46978;-52
2024/01/03 08:36:15;;;;;;;2.47;0.80;;;17.80;73.10;;;;;;5058160;28;45213;-52
2024/01/03 08:38:42;;;;;;;4.38;0.80;;;17.80;73.10;;;;;;5058926;28;45167;-52
2024/01/03 08:41:17;;;;;;;2.78;0.90;;;17.80;72.90;;;;;;5059098;28;44854;-52
2024/01/03 08:43:45;;;;;;;3.65;0.80;;;17.80;72.90;;;;;;5056150;28;45624;-52
2024/01/03 08:46:11;;;;;;;3.58;0.88;;;17.80;72.80;;;;;;5056234;28;45358;-52
2024/01/03 08:48:41;;;;;;;3.47;0.98;;;17.90;72.70;;;;;;5059303;28;45304;-52
2024/01/03 08:51:11;;;;;;;2.42;0.80;;;17.90;72.80;;;;;;5057559;28;45313;-52
2024/01/03 08:53:38;;;;;;;3.08;1.00;;;17.90;72.60;;;;;;5056489;28;46530;-52
2024/01/03 08:56:12;;;;;;;3.13;0.88;;;17.90;72.90;;;;;;5058760;28;45363;-52
2024/01/03 08:58:41;;;;;;;1.05;0.52;;;17.80;73.00;;;;;;5059552;28;45256;-52
2024/01/03 09:01:08;;;;;;;2.53;0.80;;;17.80;73.00;;;;;;5054588;28;45375;-52
2024/01/03 09:03:36;;;;;;;2.08;0.90;;;17.80;73.20;;;;;;5058866;28;45255;-52
2024/01/03 09:06:04;;;;;;;1.67;0.70;;;17.80;73.20;;;;;;5059202;28;45425;-52
2024/01/03 09:08:30;;;;;;;2.58;0.85;;;17.80;72.90;;;;;;5058839;28;45176;-52
2024/01/03 09:10:57;;;;;;;2.63;0.80;;;17.80;72.90;;;;;;5057072;28;45309;-52
2024/01/03 09:13:24;;;;;;;2.60;0.70;;;17.70;72.80;;;;;;5058527;28;45423;-52
2024/01/03 09:15:52;;;;;;;1.77;0.70;;;17.80;72.90;;;;;;5055412;28;45262;-52
2024/01/03 09:18:19;;;;;;;1.77;0.77;;;17.80;72.60;;;;;;5057730;28;45158;-52
2024/01/03 09:20:46;;;;;;;1.77;0.57;;;17.80;72.50;;;;;;5059262;28;45201;-52
2024/01/03 09:23:13;;;;;;;4.07;1.10;;;17.80;72.50;;;;;;5057615;28;46481;-52
2024/01/03 09:25:40;;;;;;;2.25;0.80;;;17.80;72.40;;;;;;5056783;28;45255;-52
2024/01/03 09:28:10;;;;;;;2.53;0.80;;;17.80;72.60;;;;;;5056060;28;45299;-52
2024/01/03 09:30:37;;;;;;;1.67;0.68;;;17.80;72.40;;;;;;5055297;28;45807;-52
2024/01/03 09:33:05;;;;;;;1.15;0.60;;;17.70;72.40;;;;;;5058447;28;45185;-52
2024/01/03 09:35:32;;;;;;;1.42;0.70;;;17.80;73.60;;;;;;5056917;28;45164;-52
2024/01/03 09:37:59;;;;;;;3.30;1.00;;;17.80;72.60;;;;;;5057265;28;44707;-52
2024/01/03 09:40:26;;;;;;;2.25;0.52;;;17.80;72.40;;;;;;5058153;28;45209;-52
2024/01/03 09:42:53;;;;;;;2.38;0.63;;;17.80;72.40;;;;;;5057730;28;46955;-52
2024/01/03 09:45:21;;;;;;;1.42;0.68;;;17.80;72.40;;;;;;5056294;28;45276;-52
2024/01/03 09:47:48;;;;;;;2.10;0.65;;;17.90;72.60;;;;;;5055408;28;45251;-52
2024/01/03 09:50:16;;;;;;;2.88;0.80;;;17.90;72.50;;;;;;5055483;28;45139;-52
2024/01/03 09:52:45;;;;;;;2.47;0.70;;;17.90;72.30;;;;;;5057319;28;47468;-52
2024/01/03 09:55:12;;;;;;;1.48;0.65;;;17.90;72.20;;;;;;5058495;28;45250;-51
2024/01/03 09:57:39;;;;;;;3.35;0.93;;;17.90;71.30;;;;;;5054970;28;45242;-52
2024/01/03 10:00:08;;;;;;;0.82;0.50;;;17.90;71.00;;;;;;5055563;28;45394;-52
2024/01/03 10:02:36;;;;;;;3.72;0.60;;;18.00;70.70;;;;;;5057136;28;45449;-52
2024/01/03 10:05:03;;;;;;;3.65;0.90;;;18.00;70.80;;;;;;5057578;28;45321;-52
2024/01/03 10:07:35;;;;;;;1.85;0.60;;;18.00;70.70;;;;;;5057283;28;45184;-52
2024/01/03 10:10:02;;;;;;;2.15;0.70;;;18.00;70.80;;;;;;5055015;28;45300;-52
2024/01/03 10:12:32;;;;;;;1.88;0.75;;;17.90;70.80;;;;;;5056603;28;48705;-52
2024/01/03 10:15:13;;;;;;;2.13;0.52;;;17.90;71.20;;;;;;5057205;28;45269;-52
2024/01/03 10:17:42;;;;;;;2.25;0.60;;;17.90;71.30;;;;;;5056393;28;45178;-52
2024/01/03 10:20:24;;;;;;;4.60;1.17;;;17.80;71.60;;;;;;5058532;28;45313;-52
2024/01/03 10:23:04;;;;;;;2.90;0.80;;;17.80;71.80;;;;;;5057381;28;47030;-52
2024/01/03 10:25:31;;;;;;;2.42;0.63;;;17.80;72.00;;;;;;5056382;28;45466;-52
2024/01/03 10:28:00;;;;;;;5.00;0.82;;;17.80;72.10;;;;;;5055931;28;45314;-52
2024/01/03 10:30:27;;;;;;;2.67;0.80;;;17.80;72.10;;;;;;5056126;28;44927;-52
2024/01/03 10:32:58;;;;;;;2.50;0.70;;;17.80;72.20;;;;;;5055960;28;47405;-52
2024/01/03 10:35:27;;;;;;;1.95;0.80;;;17.80;72.40;;;;;;5057856;28;45178;-52
2024/01/03 10:37:57;;;;;;;1.80;0.70;;;17.80;72.60;;;;;;5057374;28;45564;-52
2024/01/03 10:40:26;;;;;;;3.03;0.90;;;17.80;72.60;;;;;;5056902;28;45285;-52
2024/01/03 10:42:54;;;;;;;2.88;0.75;;;17.80;72.70;;;;;;5055151;28;45436;-52
2024/01/03 10:45:23;;;;;;;1.63;0.75;;;17.80;72.60;;;;;;5056102;28;46242;-52
2024/01/03 10:47:50;;;;;;;3.15;0.95;;;17.80;72.60;;;;;;5057744;28;45277;-52
2024/01/03 10:50:17;;;;;;;3.38;1.13;;;17.80;72.60;;;;;;5054323;28;45267;-52
2024/01/03 10:52:45;;;;;;;2.97;0.98;;;17.80;72.60;;;;;;5057433;28;45396;-52
2024/01/03 10:55:18;;;;;;;3.08;0.93;;;17.80;72.50;;;;;;5058021;28;45247;-52
2024/01/03 10:57:55;;;;;;;3.58;1.05;;;17.80;72.70;;;;;;5057801;28;45223;-52
2024/01/03 11:00:33;;;;;;;4.57;0.75;;;17.80;72.40;;;;;;5054433;28;45307;-52
2024/01/03 11:03:06;;;;;;;2.10;0.80;;;17.80;72.60;;;;;;5057569;28;45555;-52
2024/01/03 11:05:39;;;;;;;3.22;0.98;;;17.80;72.40;;;;;;5056876;28;45362;-52
2024/01/03 11:08:11;;;;;;;3.08;1.10;;;17.80;72.30;;;;;;5057841;28;45187;-53
2024/01/03 11:10:53;;;;;;;3.05;1.00;;;17.80;72.30;;;;;;5057414;28;45163;-52
2024/01/03 11:13:30;;;;;;;3.92;0.82;;;17.80;72.70;;;;;;5057728;28;47618;-52
2024/01/03 11:15:58;;;;;;;2.60;1.02;;;17.80;72.60;;;;;;5056919;28;45405;-52
2024/01/03 11:18:51;;;;;;;4.10;0.80;;;17.80;72.50;;;;;;5060812;28;45280;-52
2024/01/03 11:21:37;;;;;;;4.55;0.57;;;17.80;72.30;;;;;;5060951;28;45197;-52
2024/01/03 11:24:25;;;;;;;2.53;0.60;;;17.80;72.20;;;;;;5060989;28;45312;-52
2024/01/03 11:27:04;;;;;;;3.00;0.93;;;17.80;72.10;;;;;;5060214;28;45186;-52
2024/01/03 11:29:44;;;;;;;3.58;0.75;;;17.80;72.10;;;;;;5061065;28;45418;-52
2024/01/03 11:32:13;;;;;;;1.70;0.70;;;17.90;72.20;;;;;;5060950;28;44661;-52
2024/01/03 11:34:41;;;;;;;2.85;1.02;;;17.90;72.00;;;;;;5057935;28;46512;-53
2024/01/03 11:37:35;;;;;;;2.03;0.70;;;17.90;71.70;;;;;;5047479;28;45562;-52
2024/01/03 11:40:03;;;;;;;3.17;0.85;;;17.90;71.50;;;;;;5058422;28;45386;-52
2024/01/03 11:42:33;;;;;;;3.75;1.08;;;17.80;71.70;;;;;;5055135;28;44880;-52
2024/01/03 11:45:05;;;;;;;2.33;0.75;;;17.80;71.60;;;;;;5055813;28;45479;-52
2024/01/03 11:47:33;;;;;;;5.05;0.95;;;17.80;71.50;;;;;;5054666;28;45407;-52
2024/01/03 11:50:03;;;;;;;3.95;1.20;;;17.80;71.50;;;;;;5055759;28;45236;-52
2024/01/03 11:52:35;;;;;;;4.22;0.80;;;17.80;71.60;;;;;;5056382;28;45164;-52
2024/01/03 11:55:07;;;;;;;1.35;0.60;;;17.70;71.80;;;;;;5057058;28;46440;-52
2024/01/03 11:57:40;;;;;;;4.72;1.00;;;17.70;72.00;;;;;;5058310;28;45439;-52
2024/01/03 12:00:09;;;;;;;2.05;0.80;;;17.70;72.00;;;;;;5058200;28;45224;-53
2024/01/03 12:02:35;;;;;;;2.95;1.00;;;17.70;72.20;;;;;;5058677;28;45360;-53
2024/01/03 12:05:04;;;;;;;3.22;0.85;;;17.70;72.20;;;;;;5059284;28;48376;-53
2024/01/03 12:07:32;;;;;;;2.75;0.90;;;17.70;71.80;;;;;;5058744;28;45302;-52
2024/01/03 12:09:59;;;;;;;3.53;0.90;;;17.70;72.20;;;;;;5056104;28;45155;-52
2024/01/03 12:12:27;;;;;;;3.40;0.90;;;17.70;72.20;;;;;;5058993;28;45308;-52
2024/01/03 12:14:55;;;;;;;4.32;1.13;;;17.70;72.20;;;;;;5056580;28;48002;-52
2024/01/03 12:17:26;;;;;;;3.97;1.10;;;17.80;72.30;;;;;;5059291;28;45110;-52
2024/01/03 12:19:53;;;;;;;3.28;0.70;;;17.80;72.30;;;;;;5059532;28;45221;-53
2024/01/03 12:22:23;;;;;;;3.70;0.90;;;17.80;72.20;;;;;;5059184;28;45388;-52
2024/01/03 12:24:49;;;;;;;2.75;0.90;;;17.80;72.00;;;;;;5057975;28;49342;-53
2024/01/03 12:27:22;;;;;;;3.60;1.17;;;17.80;72.10;;;;;;5057197;28;45276;-52
2024/01/03 12:29:49;;;;;;;3.67;1.08;;;17.80;72.20;;;;;;5059124;28;45284;-53
2024/01/03 12:32:19;;;;;;;5.35;0.80;;;17.80;72.10;;;;;;5057686;28;45944;-52
2024/01/03 12:34:47;;;;;;;2.28;0.70;;;17.80;72.10;;;;;;5059282;28;48502;-52
2024/01/03 12:37:13;;;;;;;2.22;0.90;;;17.80;72.20;;;;;;5057891;28;44671;-52
2024/01/03 12:39:41;;;;;;;2.65;1.13;;;17.80;72.40;;;;;;5058264;28;44620;-52
2024/01/03 12:42:10;;;;;;;2.83;0.68;;;17.70;72.40;;;;;;5057756;28;45138;-53
2024/01/03 12:44:37;;;;;;;3.55;1.02;;;17.70;72.50;;;;;;5054433;28;47188;-52
2024/01/03 12:47:06;;;;;;;5.72;1.08;;;17.70;72.60;;;;;;5056747;28;45265;-53
2024/01/03 12:49:34;;;;;;;2.78;0.73;;;17.70;72.60;;;;;;5057420;28;45200;-52
2024/01/03 12:52:02;;;;;;;4.38;0.88;;;17.80;72.60;;;;;;5054950;28;45397;-52